Time;durP1;ratioP1;P1;durP2;ratioP2;P2;SDS_P1;SDS_P2;PMS_P1;PMS_P2;Temp;Humidity;BMP_temperature;BMP_pressure;BME280_temperature;BME280_humidity;BME280_pressure;Samples;Min_cycle;Max_cycle;Signal;HPM_P1;HPM_P2
2022/09/10 00:00:42;;;;;;;2.17;1.17;;;;;;;18.98;70.61;100051.06;4809664;29;97115;-81
2022/09/10 00:03:09;;;;;;;10.40;1.10;;;;;;;18.54;71.45;100020.56;4840753;29;96807;-81
2022/09/10 00:05:42;;;;;;;4.68;1.50;;;;;;;18.52;72.67;100062.31;4824528;29;101581;-81
2022/09/10 00:08:08;;;;;;;3.92;1.20;;;;;;;18.47;72.83;100044.06;4821418;28;99988;-80
2022/09/10 00:10:43;;;;;;;5.63;1.38;;;;;;;18.24;73.33;100043.03;4825781;28;96840;-81
2022/09/10 00:13:09;;;;;;;2.72;1.17;;;;;;;18.13;73.36;100034.13;4840957;28;96694;-81
2022/09/10 00:15:42;;;;;;;3.08;0.93;;;;;;;17.97;73.75;100018.38;4824974;29;101106;-81
2022/09/10 00:18:09;;;;;;;1.83;0.95;;;;;;;18.13;74.17;100056.22;4837265;28;97338;-81
2022/09/10 00:20:55;;;;;;;1.50;0.90;;;;;;;18.10;74.17;100059.09;4827479;28;97260;-81
2022/09/10 00:23:24;;;;;;;2.35;0.95;;;;;;;18.00;74.27;100052.69;4854337;28;97765;-81
2022/09/10 00:25:52;;;;;;;4.25;1.20;;;;;;;18.02;73.98;100054.28;4848169;28;98387;-82
2022/09/10 00:28:18;;;;;;;1.00;0.70;;;;;;;17.96;74.43;100041.44;4839590;28;101499;-81
2022/09/10 00:30:46;;;;;;;3.10;1.20;;;;;;;17.99;74.33;100051.84;4842601;28;96802;-81
2022/09/10 00:33:13;;;;;;;2.67;1.27;;;;;;;18.10;74.62;100051.13;4834155;29;96983;-83
2022/09/10 00:35:39;;;;;;;3.10;1.00;;;;;;;18.14;74.72;100049.94;4843287;28;98219;-83
2022/09/10 00:38:05;;;;;;;1.98;1.10;;;;;;;18.12;74.71;100035.06;4830873;29;101551;-82
2022/09/10 00:40:31;;;;;;;6.53;1.20;;;;;;;18.24;73.97;100035.06;4821803;28;96797;-82
2022/09/10 00:42:57;;;;;;;2.78;1.23;;;;;;;18.34;73.79;100045.88;4838267;29;97039;-82
2022/09/10 00:45:33;;;;;;;2.03;0.98;;;;;;;18.44;73.19;100049.59;4857972;28;99626;-81
2022/09/10 00:48:02;;;;;;;1.92;0.93;;;;;;;18.25;73.34;100009.34;4842710;28;100925;-81
2022/09/10 00:50:35;;;;;;;3.00;1.52;;;;;;;18.33;73.14;100023.78;4842867;28;96936;-81
2022/09/10 00:53:04;;;;;;;2.95;1.60;;;;;;;18.22;73.95;100028.16;4842732;28;97122;-82
2022/09/10 00:55:33;;;;;;;2.65;1.65;;;;;;;18.26;73.46;100011.88;4842684;28;101519;-83
2022/09/10 00:57:59;;;;;;;7.05;1.60;;;;;;;18.19;74.02;100015.94;4838965;28;101903;-80
2022/09/10 01:00:25;;;;;;;2.50;1.40;;;;;;;18.09;74.11;100002.47;4840101;28;97152;-81
2022/09/10 01:02:51;;;;;;;2.78;1.40;;;;;;;18.09;74.07;99989.19;4875182;28;96800;-82
2022/09/10 01:05:17;;;;;;;5.93;1.30;;;;;;;18.21;73.77;99994.56;4858591;28;98370;-81
2022/09/10 01:07:43;;;;;;;1.60;1.10;;;;;;;18.18;73.78;99992.13;4843655;28;97568;-82
2022/09/10 01:10:35;;;;;;;1.95;0.85;;;;;;;18.16;74.20;99988.75;4828030;28;97361;-83
2022/09/10 01:13:10;;;;;;;3.22;1.20;;;;;;;18.17;74.41;99988.63;4850133;28;97228;-82
2022/09/10 01:16:07;;;;;;;2.63;1.10;;;;;;;18.19;74.44;99980.56;4859582;28;101638;-81
2022/09/10 01:18:54;;;;;;;1.58;1.02;;;;;;;18.15;74.43;99968.44;4839120;28;101943;-83
2022/09/10 01:21:39;;;;;;;2.22;1.00;;;;;;;18.29;73.95;99977.13;4859564;28;97199;-82
2022/09/10 01:24:04;;;;;;;1.70;1.10;;;;;;;18.27;73.83;99978.22;4849057;28;97178;-81
2022/09/10 01:26:33;;;;;;;4.22;1.20;;;;;;;18.22;74.54;99985.66;4857088;28;100315;-82
2022/09/10 01:29:15;;;;;;;1.88;1.10;;;;;;;18.22;74.24;99980.34;4865729;28;101527;-81
2022/09/10 01:31:50;;;;;;;3.17;0.90;;;;;;;18.28;73.88;99974.59;4841720;28;96740;-81
2022/09/10 01:34:28;;;;;;;2.08;1.00;;;;;;;18.20;74.01;99968.97;4851519;28;97133;-84
2022/09/10 01:36:59;;;;;;;2.63;1.00;;;;;;;18.14;74.67;99962.28;4831607;28;101579;-81
2022/09/10 01:39:24;;;;;;;2.63;1.00;;;;;;;18.16;73.83;99967.50;4865353;28;97366;-81
2022/09/10 01:41:53;;;;;;;3.42;1.00;;;;;;;18.18;73.98;99962.91;4857131;28;97195;-81
2022/09/10 01:44:49;;;;;;;3.70;1.05;;;;;;;18.21;73.41;99968.88;4844671;28;96810;-81
2022/09/10 01:47:30;;;;;;;1.70;0.90;;;;;;;17.93;74.08;99939.91;4833263;28;101660;-81
2022/09/10 01:50:02;;;;;;;6.30;1.30;;;;;;;18.14;74.63;99966.75;4850808;28;98449;-80
2022/09/10 01:52:56;;;;;;;3.35;1.20;;;;;;;18.08;74.63;99955.59;4844262;28;97548;-81
2022/09/10 01:55:49;;;;;;;7.07;1.17;;;;;;;18.13;74.64;99971.22;4839301;28;96902;-81
2022/09/10 01:58:24;;;;;;;2.10;1.00;;;;;;;18.13;74.67;99967.72;4822844;28;101265;-85
2022/09/10 02:01:10;;;;;;;2.47;0.90;;;;;;;18.12;74.87;99966.00;4850730;28;99885;-83
2022/09/10 02:03:38;;;;;;;1.10;0.93;;;;;;;18.04;74.83;99951.47;4856305;28;97197;-81
2022/09/10 02:06:06;;;;;;;1.63;0.98;;;;;;;17.92;74.67;99932.88;4837714;28;97168;-81
2022/09/10 02:08:37;;;;;;;1.85;1.10;;;;;;;18.01;74.54;99959.66;4829028;28;101435;-81
2022/09/10 02:11:05;;;;;;;0.95;0.75;;;;;;;17.94;74.83;99941.59;4825080;29;100873;-80
2022/09/10 02:13:35;;;;;;;4.30;0.90;;;;;;;18.03;74.68;99963.03;4839769;28;96815;-81
2022/09/10 02:16:21;;;;;;;1.08;0.70;;;;;;;17.90;74.73;99938.31;4828301;29;97230;-82
2022/09/10 02:18:48;;;;;;;5.13;1.10;;;;;;;17.97;73.98;99942.22;4819096;29;101725;-81
2022/09/10 02:21:14;;;;;;;2.13;1.10;;;;;;;18.00;74.24;99943.81;4834264;29;101455;-81
2022/09/10 02:23:47;;;;;;;2.58;1.00;;;;;;;18.01;73.93;99946.38;4825317;29;96981;-81
2022/09/10 02:26:13;;;;;;;1.25;0.70;;;;;;;18.02;74.35;99936.59;4821898;29;97037;-81
2022/09/10 02:28:39;;;;;;;2.80;1.08;;;;;;;17.96;74.80;99915.81;4811715;29;101283;-82
2022/09/10 02:31:05;;;;;;;3.15;1.27;;;;;;;18.11;74.28;99927.97;4834380;28;100939;-82
2022/09/10 02:33:30;;;;;;;3.67;1.23;;;;;;;17.94;74.49;99923.00;4824156;29;96831;-82
2022/09/10 02:35:56;;;;;;;3.10;1.23;;;;;;;17.96;74.84;99913.16;4818257;29;97888;-82
2022/09/10 02:38:22;;;;;;;1.70;0.95;;;;;;;17.94;74.69;99917.69;4824951;29;101691;-81
2022/09/10 02:40:48;;;;;;;2.28;1.10;;;;;;;17.98;74.52;99916.53;4841566;29;101617;-82
2022/09/10 02:43:14;;;;;;;2.10;1.00;;;;;;;17.93;74.69;99923.97;4825755;29;97328;-81
2022/09/10 02:45:40;;;;;;;3.30;1.40;;;;;;;17.98;74.70;99920.03;4857426;29;96775;-81
2022/09/10 02:48:05;;;;;;;6.80;1.80;;;;;;;18.04;74.64;99932.03;4827980;29;101534;-81
2022/09/10 02:50:34;;;;;;;5.15;1.05;;;;;;;17.91;74.29;99899.34;4836806;29;100671;-81
2022/09/10 02:53:01;;;;;;;2.00;1.17;;;;;;;17.90;74.55;99914.44;4819624;28;96806;-81
2022/09/10 02:55:27;;;;;;;2.42;1.00;;;;;;;17.85;75.10;99917.41;4814026;29;96868;-82
2022/09/10 02:57:53;;;;;;;1.75;1.05;;;;;;;17.81;74.87;99900.00;4832223;29;102013;-81
2022/09/10 03:00:20;;;;;;;3.38;1.50;;;;;;;17.84;75.11;99909.56;4828115;28;101790;-81
2022/09/10 03:02:49;;;;;;;3.22;1.10;;;;;;;17.72;75.34;99899.78;4854687;28;96823;-81
2022/09/10 03:05:16;;;;;;;2.00;0.93;;;;;;;17.85;74.62;99895.31;4827079;29;97163;-81
2022/09/10 03:07:42;;;;;;;4.80;1.10;;;;;;;17.82;75.32;99919.41;4824400;29;98288;-82
2022/09/10 03:10:08;;;;;;;2.63;1.00;;;;;;;17.75;74.92;99904.88;4840268;29;97365;-80
2022/09/10 03:12:34;;;;;;;1.45;0.90;;;;;;;17.61;75.27;99903.16;4842982;28;96852;-81
2022/09/10 03:14:59;;;;;;;1.83;1.10;;;;;;;17.68;75.77;99919.50;4843738;28;96806;-81
2022/09/10 03:17:25;;;;;;;2.45;1.02;;;;;;;17.71;75.61;99916.63;4843202;28;102549;-81
2022/09/10 03:19:51;;;;;;;2.53;1.20;;;;;;;17.67;75.64;99921.31;4841758;28;101203;-82
2022/09/10 03:22:16;;;;;;;1.83;0.80;;;;;;;17.70;75.41;99915.78;4861921;28;96799;-81
2022/09/10 03:24:42;;;;;;;1.92;0.98;;;;;;;17.67;75.75;99916.00;4857129;28;96803;-81
2022/09/10 03:27:08;;;;;;;1.73;0.90;;;;;;;17.59;75.76;99913.03;4863163;28;101470;-81
2022/09/10 03:29:35;;;;;;;3.90;0.90;;;;;;;17.73;75.57;99912.91;4843554;28;101375;-81
2022/09/10 03:32:01;;;;;;;3.15;1.00;;;;;;;17.71;75.27;99906.03;4849960;28;96870;-83
2022/09/10 03:34:26;;;;;;;4.82;0.80;;;;;;;17.72;75.72;99919.19;4845475;28;96886;-80
2022/09/10 03:36:52;;;;;;;2.08;1.00;;;;;;;17.69;75.27;99906.16;4852098;28;101436;-82
2022/09/10 03:39:18;;;;;;;2.03;1.10;;;;;;;17.72;75.38;99921.00;4845818;28;101009;-81
2022/09/10 03:41:44;;;;;;;3.90;1.30;;;;;;;17.57;76.30;99915.81;4840355;28;96781;-81
2022/09/10 03:44:10;;;;;;;1.48;0.90;;;;;;;17.42;76.48;99890.31;4845769;28;96766;-81
2022/09/10 03:46:37;;;;;;;2.38;0.88;;;;;;;17.48;76.65;99916.41;4849514;28;100993;-81
2022/09/10 03:49:07;;;;;;;2.55;0.90;;;;;;;17.54;76.43;99915.16;4824139;28;101236;-81
2022/09/10 03:51:34;;;;;;;3.35;1.17;;;;;;;17.55;75.83;99907.09;4857606;28;97506;-82
2022/09/10 03:54:00;;;;;;;3.40;1.33;;;;;;;17.62;75.50;99905.69;4828041;28;97304;-84
2022/09/10 03:56:26;;;;;;;2.78;0.90;;;;;;;17.55;76.25;99915.06;4834352;29;101098;-81
2022/09/10 03:58:52;;;;;;;2.40;1.23;;;;;;;17.42;75.86;99891.19;4843269;28;98204;-80
2022/09/10 04:01:18;;;;;;;1.48;0.95;;;;;;;17.50;75.52;99897.75;4843071;28;96957;-81
2022/09/10 04:03:46;;;;;;;1.92;1.10;;;;;;;17.45;76.18;99902.53;4838272;28;96856;-81
2022/09/10 04:06:13;;;;;;;4.95;1.08;;;;;;;17.39;76.58;99898.50;4824682;28;101324;-81
2022/09/10 04:08:39;;;;;;;5.05;1.33;;;;;;;17.49;76.22;99898.72;4834086;28;101393;-82
2022/09/10 04:11:07;;;;;;;5.78;1.33;;;;;;;17.40;75.94;99889.59;4820864;29;97075;-81
2022/09/10 04:13:32;;;;;;;2.97;1.10;;;;;;;17.57;75.74;99906.97;4808632;28;96872;-81
2022/09/10 04:16:01;;;;;;;1.40;1.00;;;;;;;17.40;76.30;99903.72;4824798;29;101654;-81
2022/09/10 04:18:27;;;;;;;3.08;1.20;;;;;;;17.39;76.44;99898.50;4809149;29;101880;-80
2022/09/10 04:20:55;;;;;;;2.15;1.17;;;;;;;17.41;76.48;99894.78;4824343;29;96845;-83
2022/09/10 04:23:20;;;;;;;4.20;1.95;;;;;;;17.36;76.49;99896.06;4820712;29;97529;-85
2022/09/10 04:25:48;;;;;;;1.83;1.27;;;;;;;17.25;77.00;99888.84;4820180;29;101151;-81
2022/09/10 04:28:14;;;;;;;5.43;1.35;;;;;;;17.32;77.45;99900.72;4821352;29;101162;-81
2022/09/10 04:30:43;;;;;;;3.58;1.30;;;;;;;17.39;76.71;99904.66;4824539;28;96892;-81
2022/09/10 04:33:10;;;;;;;5.07;1.23;;;;;;;17.27;77.07;99886.91;4820042;29;97140;-81
2022/09/10 04:35:36;;;;;;;3.60;1.10;;;;;;;17.32;77.04;99913.97;4839476;28;101771;-82
2022/09/10 04:38:06;;;;;;;1.77;1.10;;;;;;;17.22;77.37;99897.03;4824753;29;97238;-82
2022/09/10 04:40:34;;;;;;;2.85;1.20;;;;;;;17.30;76.99;99897.31;4822231;29;98193;-81
2022/09/10 04:43:00;;;;;;;1.85;1.27;;;;;;;17.38;76.84;99891.50;4823758;29;98393;-82
2022/09/10 04:45:25;;;;;;;1.95;1.20;;;;;;;17.18;76.58;99874.28;4840366;29;98043;-81
2022/09/10 04:47:53;;;;;;;3.83;1.38;;;;;;;17.28;76.83;99901.91;4822935;28;101329;-81
2022/09/10 04:50:19;;;;;;;2.13;1.13;;;;;;;17.27;77.08;99907.28;4824017;29;96765;-81
2022/09/10 04:53:06;;;;;;;7.10;1.95;;;;;;;17.13;77.44;99914.41;4838719;28;96942;-82
2022/09/10 04:55:32;;;;;;;5.07;1.67;;;;;;;17.05;78.28;99908.75;4822846;29;101215;-81
2022/09/10 04:57:59;;;;;;;2.95;1.42;;;;;;;17.04;77.71;99892.94;4820372;28;100707;-81
2022/09/10 05:00:25;;;;;;;2.30;1.52;;;;;;;17.01;77.87;99891.34;4818114;29;97168;-81
2022/09/10 05:02:51;;;;;;;2.72;1.20;;;;;;;17.23;77.55;99911.97;4824332;28;96854;-82
2022/09/10 05:05:17;;;;;;;2.25;1.40;;;;;;;17.24;77.31;99896.91;4823840;29;100163;-81
2022/09/10 05:07:43;;;;;;;2.00;1.38;;;;;;;17.33;77.15;99923.63;4823814;29;101391;-82
2022/09/10 05:10:09;;;;;;;1.80;1.20;;;;;;;17.37;76.82;99919.84;4823883;28;96854;-83
2022/09/10 05:12:37;;;;;;;2.13;1.20;;;;;;;17.36;76.82;99911.97;4836817;28;96936;-84
2022/09/10 05:15:05;;;;;;;3.20;1.33;;;;;;;17.29;77.32;99911.53;4840830;28;101562;-82
2022/09/10 05:17:32;;;;;;;1.40;1.20;;;;;;;17.30;77.08;99910.56;4875504;28;98493;-82
2022/09/10 05:19:59;;;;;;;2.78;1.30;;;;;;;17.35;76.88;99921.72;4859549;28;97283;-82
2022/09/10 05:22:25;;;;;;;3.28;1.00;;;;;;;17.50;76.32;99914.53;4844471;28;97073;-82
2022/09/10 05:24:50;;;;;;;2.95;1.35;;;;;;;17.48;76.66;99919.06;4857012;28;98114;-81
2022/09/10 05:27:16;;;;;;;2.38;1.10;;;;;;;17.39;76.01;99915.28;4856385;28;101277;-81
2022/09/10 05:29:41;;;;;;;2.45;1.20;;;;;;;17.35;76.83;99910.28;4831039;28;96723;-84
2022/09/10 05:32:08;;;;;;;4.05;1.33;;;;;;;17.46;75.99;99905.09;4870206;28;96886;-82
2022/09/10 05:34:34;;;;;;;4.55;1.40;;;;;;;17.57;75.74;99914.94;4855695;28;98291;-82
2022/09/10 05:37:00;;;;;;;1.10;1.00;;;;;;;17.35;76.21;99891.72;4841338;28;100706;-86
2022/09/10 05:39:26;;;;;;;2.85;1.02;;;;;;;17.39;76.36;99907.31;4871621;28;97112;-82
2022/09/10 05:41:51;;;;;;;2.25;1.25;;;;;;;17.39;76.73;99909.97;4840776;28;96960;-82
2022/09/10 05:44:17;;;;;;;2.78;1.33;;;;;;;17.45;76.92;99913.97;4848803;28;101327;-83
2022/09/10 05:46:44;;;;;;;3.83;1.17;;;;;;;17.55;76.30;99912.41;4866679;28;98384;-82
2022/09/10 05:49:13;;;;;;;3.22;1.20;;;;;;;17.48;76.38;99900.50;4841396;28;96870;-83
2022/09/10 05:51:38;;;;;;;3.90;1.48;;;;;;;17.50;76.30;99898.59;4844589;28;97766;-82
2022/09/10 05:54:06;;;;;;;1.88;0.90;;;;;;;17.50;76.68;99905.72;4853177;28;101819;-82
2022/09/10 05:56:31;;;;;;;3.80;1.58;;;;;;;17.46;75.71;99893.63;4825819;28;101344;-82
2022/09/10 05:58:57;;;;;;;4.75;1.85;;;;;;;17.46;76.07;99913.03;4830761;28;97563;-82
2022/09/10 06:01:23;;;;;;;4.03;1.13;;;;;;;17.43;76.17;99911.44;4845349;28;96903;-83
2022/09/10 06:03:50;;;;;;;6.22;1.10;;;;;;;17.45;75.77;99907.84;4831900;28;101394;-82
2022/09/10 06:06:16;;;;;;;1.73;1.30;;;;;;;17.66;75.86;99922.28;4830789;28;101463;-82
2022/09/10 06:08:50;;;;;;;2.50;1.05;;;;;;;17.69;75.47;99923.88;4858074;28;97109;-81
2022/09/10 06:11:22;;;;;;;2.58;1.08;;;;;;;17.57;75.89;99906.97;4836395;29;97544;-82
2022/09/10 06:13:49;;;;;;;3.05;1.60;;;;;;;17.66;75.57;99901.06;4808081;29;101552;-83
2022/09/10 06:16:15;;;;;;;2.78;1.30;;;;;;;17.88;74.75;99917.19;4819385;29;98006;-82
2022/09/10 06:18:42;;;;;;;2.00;1.20;;;;;;;17.95;73.56;99901.69;4827450;29;96808;-82
2022/09/10 06:21:16;;;;;;;2.22;1.40;;;;;;;18.06;73.94;99906.19;4810368;29;98311;-84
2022/09/10 06:23:44;;;;;;;1.10;1.00;;;;;;;18.12;73.71;99894.28;4809304;29;101738;-82
2022/09/10 06:26:12;;;;;;;2.30;1.10;;;;;;;18.56;72.82;99909.66;4823064;29;101218;-82
2022/09/10 06:28:37;;;;;;;7.93;1.52;;;;;;;18.65;72.38;99901.00;4850839;28;96798;-84
2022/09/10 06:31:05;;;;;;;2.47;1.30;;;;;;;18.81;71.82;99902.53;4846486;28;98212;-82
2022/09/10 06:33:33;;;;;;;4.45;1.40;;;;;;;19.55;69.72;99872.00;4815870;28;101874;-82
2022/09/10 06:36:00;;;;;;;2.63;1.40;;;;;;;20.32;67.49;99896.03;4828405;29;101319;-83
2022/09/10 06:38:32;;;;;;;3.50;1.48;;;;;;;20.99;66.06;99886.13;4815273;28;97415;-83
2022/09/10 06:40:59;;;;;;;3.90;1.40;;;;;;;21.98;62.76;99882.03;4814045;29;97624;-82
2022/09/10 06:43:33;;;;;;;2.35;1.10;;;;;;;21.76;62.31;99900.94;4813194;28;100930;-81
2022/09/10 06:46:19;;;;;;;2.95;0.95;;;;;;;22.54;60.85;99894.00;4824635;29;100280;-81
2022/09/10 06:48:59;;;;;;;3.90;1.45;;;;;;;24.35;56.02;99893.03;4813653;29;96840;-82
2022/09/10 06:51:28;;;;;;;5.00;1.13;;;;;;;25.42;52.98;99892.13;4826808;28;96942;-83
2022/09/10 06:53:54;;;;;;;1.23;1.00;;;;;;;25.82;51.08;99896.94;4821350;28;101278;-82
2022/09/10 06:56:21;;;;;;;2.10;1.00;;;;;;;27.14;47.97;99877.38;4830744;28;100761;-81
2022/09/10 06:58:48;;;;;;;4.45;1.13;;;;;;;28.25;46.51;99879.25;4826420;29;96856;-81
2022/09/10 07:01:19;;;;;;;1.67;1.13;;;;;;;28.78;44.74;99891.06;4826965;29;96963;-83
2022/09/10 07:03:56;;;;;;;2.88;1.50;;;;;;;29.25;43.08;99891.88;4830280;28;101503;-84
2022/09/10 07:06:24;;;;;;;2.05;1.00;;;;;;;27.97;45.00;99893.19;4810067;29;101863;-83
2022/09/10 07:08:54;;;;;;;5.10;1.27;;;;;;;28.03;46.02;99880.88;4819530;29;98742;-85
2022/09/10 07:11:19;;;;;;;1.52;1.10;;;;;;;26.43;48.47;99895.78;4847311;28;96938;-86
2022/09/10 07:13:49;;;;;;;3.75;1.20;;;;;;;28.42;44.22;99882.72;4852308;28;100893;-88
2022/09/10 07:16:17;;;;;;;2.00;1.30;;;;;;;29.07;43.78;99898.47;4844465;28;99522;-88
2022/09/10 07:18:42;;;;;;;2.42;1.08;;;;;;;30.14;40.50;99894.63;4845903;28;97605;-84
2022/09/10 07:21:14;;;;;;;3.42;1.20;;;;;;;30.72;40.08;99884.69;4869675;28;97339;-84
2022/09/10 07:23:50;;;;;;;1.73;1.00;;;;;;;31.06;38.86;99880.41;4834692;28;101492;-85
2022/09/10 07:26:18;;;;;;;1.52;1.00;;;;;;;30.05;41.59;99884.91;4844592;28;99859;-87
2022/09/10 07:28:47;;;;;;;5.55;1.30;;;;;;;30.49;40.15;99886.75;4860499;28;96947;-88
2022/09/10 07:31:17;;;;;;;3.45;1.30;;;;;;;30.98;39.65;99885.97;4863099;28;97519;-86
2022/09/10 07:33:46;;;;;;;4.97;1.08;;;;;;;32.85;36.89;99878.59;4846527;28;99488;-85
2022/09/10 07:36:12;;;;;;;1.77;1.10;;;;;;;34.18;35.45;99861.19;4848628;28;101166;-85
2022/09/10 07:38:39;;;;;;;2.72;1.38;;;;;;;35.26;33.79;99869.28;4841593;28;97275;-84
2022/09/10 07:41:11;;;;;;;4.60;1.20;;;;;;;35.96;32.77;99876.31;4844390;28;97302;-88
2022/09/10 07:43:38;;;;;;;4.85;1.30;;;;;;;36.55;32.01;99879.34;4832781;28;101661;-91
2022/09/10 07:46:05;;;;;;;3.42;1.05;;;;;;;36.64;31.63;99864.28;4855096;28;98539;-90
2022/09/10 07:48:33;;;;;;;5.03;1.40;;;;;;;35.42;33.03;99877.94;4847766;28;97181;-91
2022/09/10 07:51:06;;;;;;;3.33;1.20;;;;;;;34.82;33.22;99865.66;4852792;28;97418;-90
2022/09/10 07:53:33;;;;;;;4.22;1.02;;;;;;;31.67;38.21;99866.25;4856761;28;101455;-89
2022/09/10 07:56:00;;;;;;;2.90;1.10;;;;;;;29.73;41.65;99873.47;4841689;28;100913;-88
2022/09/10 07:58:30;;;;;;;3.80;1.30;;;;;;;28.32;44.94;99879.38;4839503;28;96893;-87
2022/09/10 08:00:58;;;;;;;2.47;1.20;;;;;;;28.40;44.18;99887.44;4839843;28;96944;-86
2022/09/10 08:03:26;;;;;;;2.05;1.05;;;;;;;28.89;43.29;99893.34;4852088;28;102251;-86
2022/09/10 08:05:52;;;;;;;4.55;1.23;;;;;;;26.92;47.11;99889.66;4846143;28;102147;-84
2022/09/10 08:08:18;;;;;;;4.43;1.27;;;;;;;26.20;48.67;99889.34;4850857;28;97867;-84
2022/09/10 08:10:45;;;;;;;4.88;1.17;;;;;;;28.63;44.44;99879.38;4841806;28;97272;-85
2022/09/10 08:13:12;;;;;;;2.20;1.00;;;;;;;29.97;40.39;99881.31;4836012;28;98486;-85
2022/09/10 08:15:43;;;;;;;6.25;1.42;;;;;;;29.41;41.92;99888.16;4858142;28;97446;-90
2022/09/10 08:18:15;;;;;;;2.67;1.08;;;;;;;27.56;45.35;99888.94;4841435;28;96978;-88
2022/09/10 08:20:40;;;;;;;4.18;1.00;;;;;;;26.48;47.27;99887.22;4824087;28;97356;-87
2022/09/10 08:23:06;;;;;;;5.53;1.20;;;;;;;29.86;41.52;99886.34;4833110;28;102197;-89
2022/09/10 08:25:33;;;;;;;4.00;1.23;;;;;;;31.35;39.22;99891.09;4841648;28;101349;-87
2022/09/10 08:28:00;;;;;;;2.50;1.20;;;;;;;32.35;37.30;99885.34;4847793;28;97866;-88
2022/09/10 08:30:25;;;;;;;4.15;1.10;;;;;;;33.11;36.07;99866.91;4830740;28;97116;-90
2022/09/10 08:32:52;;;;;;;2.38;0.95;;;;;;;32.43;35.37;99874.31;4840965;28;100686;-89
2022/09/10 08:35:19;;;;;;;2.40;1.00;;;;;;;29.99;39.60;99889.22;4825503;28;101641;-85
2022/09/10 08:37:45;;;;;;;2.78;1.08;;;;;;;28.88;41.16;99883.56;4842375;28;98075;-86
2022/09/10 08:40:14;;;;;;;3.55;1.08;;;;;;;31.54;36.90;99877.88;4867543;28;97481;-85
2022/09/10 08:42:48;;;;;;;3.88;1.00;;;;;;;32.96;35.08;99884.44;4843173;28;101902;-87
2022/09/10 08:45:19;;;;;;;4.03;1.52;;;;;;;33.53;34.11;99882.97;4837862;28;101057;-87
2022/09/10 08:47:56;;;;;;;4.15;1.20;;;;;;;33.24;33.71;99885.09;4843714;28;97962;-85
2022/09/10 08:50:40;;;;;;;2.42;1.15;;;;;;;30.59;37.34;99888.06;4841225;28;97272;-90
2022/09/10 08:53:35;;;;;;;4.80;1.77;;;;;;;31.42;36.26;99883.03;4827387;28;102236;-84
2022/09/10 08:56:05;;;;;;;4.95;1.63;;;;;;;32.16;35.99;99873.41;4879536;28;97568;-86
2022/09/10 08:58:44;;;;;;;5.00;1.45;;;;;;;33.21;34.78;99884.69;4861112;28;96780;-86
2022/09/10 09:01:23;;;;;;;3.38;0.98;;;;;;;30.23;37.68;99883.53;4846796;28;98130;-87
2022/09/10 09:03:51;;;;;;;1.88;1.15;;;;;;;29.92;38.56;99894.56;4825444;28;101754;-88
2022/09/10 09:06:34;;;;;;;3.15;1.15;;;;;;;31.14;36.51;99888.41;4846250;28;99913;-88
2022/09/10 09:09:02;;;;;;;3.33;1.48;;;;;;;30.96;37.23;99882.63;4842097;28;98100;-86
2022/09/10 09:11:59;;;;;;;3.50;1.00;;;;;;;32.48;34.38;99888.13;4851180;28;97372;-87
2022/09/10 09:14:41;;;;;;;3.35;1.40;;;;;;;31.98;35.60;99882.94;4855663;28;101428;-84
2022/09/10 09:17:25;;;;;;;4.95;1.00;;;;;;;31.98;35.53;99882.94;4856062;28;101518;-83
2022/09/10 09:20:04;;;;;;;2.88;1.20;;;;;;;30.17;37.43;99878.00;4862941;28;97286;-84
2022/09/10 09:22:53;;;;;;;2.90;1.00;;;;;;;29.05;40.25;99886.16;4841000;28;97069;-83
2022/09/10 09:25:37;;;;;;;6.95;1.92;;;;;;;30.66;38.55;99878.16;4856297;28;101494;-85
2022/09/10 09:28:10;;;;;;;3.70;1.27;;;;;;;32.51;35.61;99876.03;4825546;28;101443;-88
2022/09/10 09:30:47;;;;;;;4.28;1.38;;;;;;;32.41;35.44;99879.94;4840852;28;97232;-92
2022/09/10 09:33:16;;;;;;;3.45;1.17;;;;;;;31.29;36.81;99872.03;4846523;28;97563;-89
2022/09/10 09:35:51;;;;;;;2.78;1.33;;;;;;;30.76;36.82;99875.13;4842135;28;101762;-87
2022/09/10 09:38:29;;;;;;;6.03;1.25;;;;;;;29.79;39.27;99891.69;4831954;28;100958;-88
2022/09/10 09:40:59;;;;;;;4.80;1.55;;;;;;;30.14;39.23;99878.41;4859729;28;96839;-88
2022/09/10 09:43:49;;;;;;;3.70;1.80;;;;;;;31.57;36.79;99863.91;4842399;28;96962;-82
2022/09/10 09:46:18;;;;;;;4.95;2.15;;;;;;;32.35;35.10;99877.19;4856697;28;100833;-84
2022/09/10 09:48:47;;;;;;;3.30;1.25;;;;;;;32.77;34.51;99873.34;4857214;28;101765;-84
2022/09/10 09:51:19;;;;;;;5.13;1.88;;;;;;;33.18;33.54;99866.06;4839462;28;97286;-86
2022/09/10 09:54:09;;;;;;;6.28;1.33;;;;;;;32.13;35.04;99871.09;4841136;28;97302;-86
2022/09/10 09:56:38;;;;;;;5.47;1.20;;;;;;;30.26;37.76;99876.06;4858993;28;98154;-85
2022/09/10 09:59:25;;;;;;;6.05;1.30;;;;;;;31.42;36.47;99871.34;4840935;28;98427;-83
2022/09/10 10:01:50;;;;;;;3.17;1.27;;;;;;;31.31;36.93;99854.53;4831405;28;97218;-89
2022/09/10 10:04:29;;;;;;;5.55;1.05;;;;;;;31.21;36.87;99861.34;4831685;28;96978;-89
2022/09/10 10:06:59;;;;;;;4.28;1.30;;;;;;;31.83;35.72;99851.53;4828532;28;102100;-90
2022/09/10 10:09:27;;;;;;;2.58;0.90;;;;;;;30.48;37.68;99860.66;4848349;28;100941;-89
2022/09/10 10:12:03;;;;;;;4.70;1.35;;;;;;;29.87;39.10;99856.41;4845688;28;97242;-89
2022/09/10 10:14:35;;;;;;;5.13;1.20;;;;;;;29.91;38.51;99852.31;4827621;29;98690;-89
2022/09/10 10:17:01;;;;;;;4.95;1.40;;;;;;;30.00;38.76;99855.75;4827825;28;101519;-87
2022/09/10 10:19:32;;;;;;;6.65;1.55;;;;;;;30.36;38.09;99835.97;4826502;29;97478;-90
2022/09/10 10:22:13;;;;;;;4.93;1.50;;;;;;;30.50;37.79;99843.19;4841171;29;97404;-86
2022/09/10 10:24:41;;;;;;;4.28;1.30;;;;;;;29.92;38.61;99837.75;4859259;29;96831;-89
2022/09/10 10:27:35;;;;;;;5.00;1.20;;;;;;;29.42;39.73;99846.63;4827746;29;101489;-90
2022/09/10 10:30:24;;;;;;;3.33;1.20;;;;;;;28.74;40.62;99822.25;4844739;29;98324;-85
2022/09/10 10:32:49;;;;;;;3.20;1.27;;;;;;;28.82;41.07;99842.94;4837114;29;97919;-89
2022/09/10 10:36:04;;;;;;;3.03;1.08;;;;;;;28.35;41.73;99836.69;4844176;28;96891;-87
2022/09/10 10:38:32;;;;;;;3.70;1.40;;;;;;;28.59;41.82;99834.84;4837441;28;97997;-87
2022/09/10 10:41:22;;;;;;;3.58;1.58;;;;;;;28.20;42.46;99835.78;4820515;28;99937;-88
2022/09/10 10:43:56;;;;;;;3.65;1.23;;;;;;;27.83;42.53;99837.31;4848322;29;97250;-87
2022/09/10 10:46:28;;;;;;;4.32;1.30;;;;;;;27.83;42.19;99828.38;4862234;28;97365;-88
2022/09/10 10:49:16;;;;;;;5.90;1.50;;;;;;;27.75;42.69;99824.69;4830786;29;101541;-87
2022/09/10 10:51:59;;;;;;;7.22;1.67;;;;;;;27.73;42.66;99825.88;4853049;28;97103;-88
2022/09/10 10:54:36;;;;;;;2.75;0.95;;;;;;;27.47;43.30;99820.75;4869250;28;97336;-87
2022/09/10 10:57:24;;;;;;;2.97;1.60;;;;;;;27.36;43.67;99818.41;4838184;28;97674;-87
2022/09/10 10:59:54;;;;;;;3.22;1.10;;;;;;;27.25;44.14;99817.75;4824088;28;101375;-87
2022/09/10 11:02:44;;;;;;;4.10;1.10;;;;;;;27.07;44.86;99809.84;4839090;29;101121;-88
2022/09/10 11:05:17;;;;;;;1.88;1.02;;;;;;;26.90;43.79;99796.59;4837552;29;96915;-87
2022/09/10 11:07:43;;;;;;;3.35;1.30;;;;;;;26.86;44.15;99794.25;4840761;29;97024;-88
2022/09/10 11:10:15;;;;;;;2.75;1.50;;;;;;;26.90;44.83;99804.66;4825554;28;101104;-86
2022/09/10 11:13:10;;;;;;;2.67;1.00;;;;;;;26.83;45.22;99804.50;4839042;28;101293;-88
2022/09/10 11:16:01;;;;;;;3.25;1.40;;;;;;;26.82;45.11;99805.50;4848537;28;97183;-89
2022/09/10 11:19:00;;;;;;;2.85;1.00;;;;;;;26.83;44.55;99805.34;4839002;28;97190;-88
2022/09/10 11:21:31;;;;;;;6.13;1.30;;;;;;;26.56;44.34;99811.09;4836107;28;98541;-87
2022/09/10 11:24:11;;;;;;;2.97;1.13;;;;;;;26.33;44.52;99809.03;4857074;28;97479;-88
2022/09/10 11:26:47;;;;;;;2.87;1.20;;;;;;;26.08;44.62;99793.84;4825391;28;97234;-87
2022/09/10 11:29:34;;;;;;;2.65;0.90;;;;;;;25.99;44.70;99789.47;4868127;28;97067;-88
2022/09/10 11:32:17;;;;;;;4.45;1.25;;;;;;;25.91;44.48;99787.56;4860075;28;97855;-87
2022/09/10 11:35:01;;;;;;;3.75;1.00;;;;;;;25.89;44.70;99798.50;4860783;28;100755;-88
2022/09/10 11:37:50;;;;;;;1.83;0.80;;;;;;;25.87;44.29;99797.00;4856519;28;97409;-88
2022/09/10 11:40:24;;;;;;;4.65;1.08;;;;;;;25.69;44.43;99791.69;4845507;28;97406;-89
2022/09/10 11:42:55;;;;;;;6.05;1.23;;;;;;;25.80;44.29;99794.06;4835197;28;101298;-88
2022/09/10 11:45:24;;;;;;;2.85;1.10;;;;;;;25.84;44.68;99797.31;4833460;28;101217;-87
2022/09/10 11:47:57;;;;;;;3.17;0.85;;;;;;;25.68;44.70;99782.75;4860036;28;97210;-86